Time;durP1;ratioP1;P1;durP2;ratioP2;P2;SDS_P1;SDS_P2;PMS_P1;PMS_P2;Temp;Humidity;BMP_temperature;BMP_pressure;BME280_temperature;BME280_humidity;BME280_pressure;Samples;Min_cycle;Max_cycle;Signal;HPM_P1;HPM_P2
2022/01/12 00:01:31;;;;;;;125.55;42.40;;;3.30;99.90;;;;;;5077691;28;20039;-81
2022/01/12 00:03:57;;;;;;;139.68;43.25;;;3.30;99.90;;;;;;5094131;28;20043;-80
2022/01/12 00:06:24;;;;;;;151.05;44.03;;;3.30;99.90;;;;;;5090513;28;20561;-80
2022/01/12 00:08:50;;;;;;;144.63;43.58;;;3.30;99.90;;;;;;5089953;28;20040;-80
2022/01/12 00:11:17;;;;;;;167.07;44.92;;;3.30;99.90;;;;;;5078131;28;20051;-79
2022/01/12 00:13:43;;;;;;;169.85;47.45;;;3.30;99.90;;;;;;5092700;28;20043;-81
2022/01/12 00:16:09;;;;;;;182.90;47.22;;;3.30;99.90;;;;;;5074463;28;20499;-80
2022/01/12 00:18:35;;;;;;;168.05;45.67;;;3.40;99.90;;;;;;5066260;28;20646;-81
2022/01/12 00:21:01;;;;;;;181.63;48.70;;;3.40;99.90;;;;;;5078559;28;20048;-80
2022/01/12 00:23:28;;;;;;;193.82;45.55;;;3.40;99.90;;;;;;5090534;28;20043;-81
2022/01/12 00:34:09;;;;;;;234.90;49.92;;;3.40;99.90;;;;;;5013274;28;20099;-79
2022/01/12 00:36:36;;;;;;;209.27;49.22;;;3.40;99.90;;;;;;5061773;28;20530;-79
2022/01/12 00:39:06;;;;;;;237.07;51.10;;;3.50;99.90;;;;;;5094723;28;20052;-80
2022/01/12 00:41:33;;;;;;;218.38;48.22;;;3.50;99.90;;;;;;5077969;28;20489;-84
2022/01/12 00:44:00;;;;;;;240.48;50.55;;;3.40;99.90;;;;;;5112237;28;20043;-80
2022/01/12 00:46:28;;;;;;;215.13;48.80;;;3.50;99.90;;;;;;5042452;28;20059;-80
2022/01/12 00:48:56;;;;;;;254.95;51.75;;;3.50;99.90;;;;;;5063173;28;20043;-80
2022/01/12 00:51:26;;;;;;;263.67;51.90;;;3.50;99.90;;;;;;5073724;28;20059;-81
2022/01/12 00:53:53;;;;;;;308.30;57.13;;;3.50;99.90;;;;;;5077100;28;20071;-80
2022/01/12 00:56:19;;;;;;;273.58;51.70;;;3.50;99.90;;;;;;5091081;28;20047;-80
2022/01/12 00:58:45;;;;;;;274.48;53.28;;;3.50;99.90;;;;;;5059263;28;20055;-80
2022/01/12 01:01:11;;;;;;;291.73;53.90;;;3.50;99.90;;;;;;5091743;28;20058;-80
2022/01/12 01:03:37;;;;;;;274.08;53.05;;;3.50;99.90;;;;;;5088563;28;20035;-81
2022/01/12 01:06:03;;;;;;;298.08;54.90;;;3.50;99.90;;;;;;5077255;28;20093;-81
2022/01/12 01:08:29;;;;;;;305.85;55.10;;;3.50;99.90;;;;;;5106935;28;20056;-80
2022/01/12 01:10:56;;;;;;;318.98;56.30;;;3.60;99.90;;;;;;5091134;28;20198;-80
2022/01/12 01:13:26;;;;;;;313.08;55.58;;;3.60;99.90;;;;;;5049100;28;20505;-80
2022/01/12 01:26:37;;;;;;;422.77;58.72;;;3.60;99.90;;;;;;5091754;28;20036;-86
2022/01/12 01:29:05;;;;;;;366.38;58.30;;;3.60;99.90;;;;;;5091714;28;20516;-81
2022/01/12 01:31:33;;;;;;;328.38;55.42;;;3.50;99.90;;;;;;5087148;28;20439;-80
2022/01/12 01:34:06;;;;;;;372.52;57.58;;;3.50;99.90;;;;;;5077721;28;20122;-82
2022/01/12 01:36:34;;;;;;;353.00;57.80;;;3.60;99.90;;;;;;5078957;28;20386;-80
2022/01/12 01:38:59;;;;;;;412.77;61.78;;;3.60;99.90;;;;;;5087825;28;20917;-80
2022/01/12 01:41:25;;;;;;;366.90;57.55;;;3.60;99.90;;;;;;5072169;28;20051;-80
2022/01/12 01:44:07;;;;;;;363.08;58.72;;;3.60;99.90;;;;;;5052641;28;20047;-81
2022/01/12 01:55:05;;;;;;;423.00;59.30;;;3.60;99.90;;;;;;5078676;28;20098;-80
2022/01/12 01:57:32;;;;;;;473.15;65.00;;;3.60;99.90;;;;;;5087095;28;20081;-80
2022/01/12 01:59:57;;;;;;;481.13;65.75;;;3.60;99.90;;;;;;5079824;28;20051;-81
2022/01/12 02:02:23;;;;;;;444.42;66.18;;;3.60;99.90;;;;;;5084859;28;20043;-80
2022/01/12 02:04:49;;;;;;;400.75;59.65;;;3.60;99.90;;;;;;5061000;28;20127;-81
2022/01/12 02:07:15;;;;;;;476.83;64.80;;;3.60;99.90;;;;;;5093281;28;20130;-80
2022/01/12 02:09:40;;;;;;;462.45;64.07;;;3.70;99.90;;;;;;5066711;28;20044;-79
2022/01/12 02:12:07;;;;;;;494.83;67.22;;;3.70;99.90;;;;;;5076759;28;20063;-80
2022/01/12 02:14:32;;;;;;;453.00;61.40;;;3.70;99.90;;;;;;5102330;28;20130;-80
2022/01/12 02:17:07;;;;;;;472.27;64.28;;;3.70;99.90;;;;;;5088057;28;20260;-80
2022/01/12 02:41:24;;;;;;;436.38;58.97;;;3.90;99.90;;;;;;5085972;28;20536;-80
2022/01/12 02:54:43;;;;;;;417.30;57.33;;;3.80;99.90;;;;;;5090377;28;20105;-81
2022/01/12 02:57:09;;;;;;;391.50;56.15;;;3.80;99.90;;;;;;5072616;28;20044;-82
2022/01/12 02:59:35;;;;;;;360.48;55.67;;;3.90;99.90;;;;;;5090616;28;20044;-81
2022/01/12 03:02:20;;;;;;;431.45;60.50;;;3.90;99.90;;;;;;5077330;28;20077;-81
2022/01/12 03:05:08;;;;;;;456.33;59.58;;;3.90;99.90;;;;;;5089274;28;20056;-80
2022/01/12 03:07:37;;;;;;;423.92;57.67;;;3.90;99.90;;;;;;5056042;28;20043;-81
2022/01/12 03:10:08;;;;;;;436.42;59.10;;;3.90;99.90;;;;;;5075032;28;20116;-81
2022/01/12 03:12:43;;;;;;;458.95;61.45;;;3.90;99.90;;;;;;5087911;28;20043;-81
2022/01/12 03:15:09;;;;;;;453.52;62.30;;;3.90;99.90;;;;;;5084346;28;20048;-82
2022/01/12 03:17:35;;;;;;;465.90;61.90;;;3.80;99.90;;;;;;5072140;28;20055;-81
2022/01/12 03:20:06;;;;;;;478.33;61.10;;;3.90;99.90;;;;;;5075510;28;20039;-80
2022/01/12 03:22:32;;;;;;;456.45;61.20;;;3.90;99.90;;;;;;5075340;28;20054;-81
2022/01/12 03:24:57;;;;;;;465.95;59.60;;;3.90;99.90;;;;;;5083554;28;20119;-81
2022/01/12 03:27:25;;;;;;;541.55;65.15;;;3.90;99.90;;;;;;5064267;28;20485;-80
2022/01/12 03:29:55;;;;;;;509.65;64.63;;;3.80;99.90;;;;;;5087495;28;20115;-82
2022/01/12 03:32:30;;;;;;;459.70;60.25;;;3.80;99.90;;;;;;5083704;28;20068;-80
2022/01/12 03:35:06;;;;;;;347.75;46.70;;;3.80;99.90;;;;;;5070599;28;20059;-81
2022/01/12 03:40:05;;;;;;;466.98;60.05;;;3.90;99.90;;;;;;5077668;28;20114;-81
2022/01/12 03:42:32;;;;;;;409.20;58.95;;;3.80;99.90;;;;;;5056947;28;20127;-80
2022/01/12 03:44:57;;;;;;;424.38;59.85;;;3.80;99.90;;;;;;5105555;28;20119;-81
2022/01/12 03:47:23;;;;;;;409.27;56.78;;;3.80;99.90;;;;;;5093963;28;20626;-80
2022/01/12 03:49:49;;;;;;;386.48;55.50;;;3.80;99.90;;;;;;5059537;28;20396;-81
2022/01/12 03:52:15;;;;;;;399.25;55.63;;;3.80;99.90;;;;;;5104840;28;20048;-81
2022/01/12 03:54:40;;;;;;;403.80;56.05;;;3.80;99.90;;;;;;5075445;28;20043;-81
2022/01/12 03:57:06;;;;;;;396.55;55.13;;;3.80;99.90;;;;;;5078219;28;20043;-80
2022/01/12 03:59:32;;;;;;;455.67;59.10;;;3.70;99.90;;;;;;5069270;28;20052;-81
2022/01/12 04:01:58;;;;;;;485.05;58.15;;;3.60;99.90;;;;;;5076621;28;20088;-85
2022/01/12 04:04:31;;;;;;;514.88;59.28;;;3.60;99.90;;;;;;5044568;28;20040;-81
2022/01/12 04:09:43;;;;;;;655.55;70.25;;;3.50;99.90;;;;;;5091472;28;20051;-80
2022/01/12 04:12:09;;;;;;;737.10;71.93;;;3.40;99.90;;;;;;5058263;28;20124;-80
2022/01/12 04:14:35;;;;;;;750.30;72.75;;;3.40;99.90;;;;;;5084860;28;20486;-79
2022/01/12 04:17:00;;;;;;;775.92;72.15;;;3.30;99.90;;;;;;5075895;28;20050;-83
2022/01/12 04:19:27;;;;;;;760.90;73.65;;;3.30;99.90;;;;;;5078460;28;20048;-80
2022/01/12 04:21:53;;;;;;;763.25;65.38;;;3.30;99.90;;;;;;5077637;28;20188;-81
2022/01/12 04:24:19;;;;;;;710.50;69.90;;;3.30;99.90;;;;;;5077123;28;20066;-80
2022/01/12 04:26:45;;;;;;;735.28;66.00;;;3.30;99.90;;;;;;5078440;28;20055;-80
2022/01/12 04:29:13;;;;;;;741.65;64.07;;;3.30;99.90;;;;;;5086522;28;20039;-81
2022/01/12 04:31:39;;;;;;;793.08;66.38;;;3.30;99.90;;;;;;5065567;28;20070;-81
2022/01/12 04:34:06;;;;;;;735.45;66.18;;;3.30;99.90;;;;;;5094170;28;20074;-80
2022/01/12 04:36:33;;;;;;;672.50;62.45;;;3.30;99.90;;;;;;5094751;28;20039;-79
2022/01/12 04:38:59;;;;;;;711.70;63.47;;;3.30;99.90;;;;;;5111056;28;20055;-80
2022/01/12 04:41:26;;;;;;;800.92;71.15;;;3.20;99.90;;;;;;5094234;28;20485;-79
2022/01/12 04:43:52;;;;;;;600.97;55.60;;;3.20;99.90;;;;;;5068521;28;20120;-79
2022/01/12 04:46:51;;;;;;;752.30;66.18;;;3.30;99.90;;;;;;5094259;28;20774;-79
2022/01/12 04:49:47;;;;;;;645.75;57.05;;;3.20;99.90;;;;;;5094481;28;20040;-80
2022/01/12 04:52:11;;;;;;;660.55;58.40;;;3.20;99.90;;;;;;5072119;28;20044;-80
2022/01/12 04:54:37;;;;;;;658.30;60.38;;;3.20;99.90;;;;;;5077862;28;20048;-81
2022/01/12 04:57:03;;;;;;;795.00;71.70;;;3.20;99.90;;;;;;5077574;28;20044;-80
2022/01/12 04:59:30;;;;;;;628.00;57.63;;;3.10;99.90;;;;;;5057419;28;20051;-81
2022/01/12 05:02:09;;;;;;;598.17;58.42;;;3.20;99.90;;;;;;5075270;28;20052;-82
2022/01/12 05:07:41;;;;;;;700.38;62.40;;;3.10;99.90;;;;;;5089442;28;20051;-80
2022/01/12 05:12:53;;;;;;;540.97;55.50;;;3.10;99.90;;;;;;5093033;28;20108;-79
2022/01/12 05:15:27;;;;;;;526.88;53.08;;;3.10;99.90;;;;;;5079592;28;20389;-80
2022/01/12 05:17:54;;;;;;;515.35;53.40;;;3.00;99.90;;;;;;5087673;28;20051;-80
2022/01/12 05:20:21;;;;;;;746.65;70.60;;;3.00;99.90;;;;;;5085544;28;20052;-80
2022/01/12 05:22:47;;;;;;;533.20;54.95;;;3.00;99.90;;;;;;5096057;28;20071;-81
2022/01/12 05:25:13;;;;;;;550.08;56.13;;;3.00;99.90;;;;;;5088816;28;20079;-81
2022/01/12 05:27:38;;;;;;;490.13;51.67;;;2.90;99.90;;;;;;5108712;28;20099;-80
2022/01/12 05:30:05;;;;;;;480.48;55.17;;;2.90;99.90;;;;;;5110258;28;20071;-81
2022/01/12 05:32:31;;;;;;;543.05;55.85;;;2.90;99.90;;;;;;5109406;28;20464;-79
2022/01/12 05:35:00;;;;;;;564.60;58.17;;;2.90;99.90;;;;;;5085227;28;20040;-79
2022/01/12 05:37:26;;;;;;;524.25;53.47;;;2.90;99.90;;;;;;5075851;28;20060;-79
2022/01/12 05:39:52;;;;;;;521.25;52.83;;;2.90;99.90;;;;;;5056452;28;20067;-81
2022/01/12 05:42:18;;;;;;;432.13;48.33;;;2.80;99.90;;;;;;5028922;28;20040;-80
2022/01/12 05:44:43;;;;;;;567.47;55.85;;;2.80;99.90;;;;;;5058883;28;20048;-79
2022/01/12 05:47:19;;;;;;;474.30;50.78;;;2.70;99.90;;;;;;5073494;28;20040;-81
2022/01/12 05:49:45;;;;;;;499.15;50.92;;;2.70;99.90;;;;;;5063324;28;20036;-79
2022/01/12 05:52:12;;;;;;;455.75;49.60;;;2.60;99.90;;;;;;5053355;28;20394;-84
2022/01/12 05:54:38;;;;;;;474.80;51.05;;;2.60;99.90;;;;;;5070952;28;20047;-80
2022/01/12 05:57:04;;;;;;;476.30;48.20;;;2.50;99.90;;;;;;5091267;28;20459;-80
2022/01/12 05:59:29;;;;;;;466.83;50.20;;;2.50;99.90;;;;;;5080714;28;20047;-79
2022/01/12 06:01:55;;;;;;;428.98;46.42;;;2.40;99.90;;;;;;5090561;28;20079;-80
2022/01/12 06:04:22;;;;;;;526.83;50.83;;;2.30;99.90;;;;;;5080844;28;20105;-80
2022/01/12 06:06:47;;;;;;;444.80;45.55;;;2.30;99.90;;;;;;5054824;28;20059;-79
2022/01/12 06:09:13;;;;;;;483.65;49.60;;;2.20;99.90;;;;;;5047617;28;20421;-82
2022/01/12 06:11:39;;;;;;;454.13;48.30;;;2.20;99.90;;;;;;5061626;28;20135;-80
2022/01/12 06:14:07;;;;;;;361.25;40.83;;;2.20;99.90;;;;;;5066597;28;20076;-79
2022/01/12 06:16:32;;;;;;;395.73;45.05;;;2.10;99.90;;;;;;5035108;28;20076;-80
2022/01/12 06:18:58;;;;;;;422.50;46.65;;;2.10;99.90;;;;;;5062164;28;20107;-80
2022/01/12 06:21:24;;;;;;;367.42;44.88;;;2.10;99.90;;;;;;5069178;28;20508;-79
2022/01/12 06:23:50;;;;;;;342.58;41.55;;;2.00;99.90;;;;;;5060008;28;20048;-78
2022/01/12 06:26:16;;;;;;;301.60;38.42;;;2.10;99.90;;;;;;5067096;28;20140;-84
2022/01/12 06:28:53;;;;;;;414.73;45.20;;;2.00;99.90;;;;;;5056584;28;20078;-78
2022/01/12 06:31:26;;;;;;;341.30;40.17;;;2.00;99.90;;;;;;5054518;28;20405;-86
2022/01/12 06:33:51;;;;;;;381.55;44.15;;;2.00;99.90;;;;;;5074801;28;20060;-78
2022/01/12 06:36:20;;;;;;;324.70;39.72;;;1.90;99.90;;;;;;5048223;28;20153;-82
2022/01/12 06:38:46;;;;;;;402.63;48.05;;;1.90;99.90;;;;;;5066007;28;20060;-80
2022/01/12 06:41:13;;;;;;;301.70;40.50;;;2.00;99.90;;;;;;5076381;28;20052;-81
2022/01/12 06:43:39;;;;;;;345.02;41.95;;;2.00;99.90;;;;;;5083959;28;20131;-80
2022/01/12 06:46:06;;;;;;;232.73;35.17;;;2.00;99.90;;;;;;5088526;28;20062;-80
2022/01/12 06:48:32;;;;;;;344.05;42.17;;;2.00;99.90;;;;;;5065690;28;20047;-82
2022/01/12 06:50:58;;;;;;;302.00;39.78;;;2.00;99.90;;;;;;5079082;28;20051;-79
2022/01/12 06:53:24;;;;;;;289.42;37.92;;;2.00;99.90;;;;;;5086316;28;20044;-77
2022/01/12 06:55:49;;;;;;;245.02;34.83;;;1.90;99.90;;;;;;5043822;28;20482;-78
2022/01/12 06:58:15;;;;;;;263.13;37.22;;;1.90;99.90;;;;;;5079689;28;20048;-82
2022/01/12 07:00:41;;;;;;;177.98;31.48;;;2.00;99.90;;;;;;5081182;28;20044;-79
2022/01/12 07:03:07;;;;;;;200.10;35.95;;;2.00;99.90;;;;;;5088713;28;20121;-80
2022/01/12 07:05:33;;;;;;;174.35;32.17;;;2.00;99.90;;;;;;5079762;28;20075;-79
2022/01/12 07:07:59;;;;;;;208.18;34.92;;;2.00;99.90;;;;;;5036124;28;20060;-79
2022/01/12 07:10:25;;;;;;;201.05;33.17;;;1.90;99.90;;;;;;5052083;28;20052;-84
2022/01/12 07:12:50;;;;;;;175.57;31.40;;;1.90;99.90;;;;;;5052661;28;20088;-80
2022/01/12 07:15:16;;;;;;;223.05;34.03;;;1.80;99.90;;;;;;5072786;28;20398;-79
2022/01/12 07:17:42;;;;;;;240.80;35.47;;;1.70;99.90;;;;;;5072261;28;20052;-79
2022/01/12 07:20:08;;;;;;;222.95;32.88;;;1.70;99.90;;;;;;5073304;28;20402;-79
2022/01/12 07:22:34;;;;;;;227.73;33.00;;;1.60;99.90;;;;;;5072537;28;20049;-80
2022/01/12 07:25:00;;;;;;;169.40;28.35;;;1.60;99.90;;;;;;5073724;28;20130;-79
2022/01/12 07:27:26;;;;;;;220.90;32.03;;;1.60;99.90;;;;;;5060124;28;20049;-83
2022/01/12 07:29:51;;;;;;;254.75;34.65;;;1.60;99.90;;;;;;5086784;28;20048;-80
2022/01/12 07:32:17;;;;;;;241.85;33.67;;;1.60;99.90;;;;;;5091762;28;20052;-80
2022/01/12 07:34:43;;;;;;;225.43;32.35;;;1.60;99.90;;;;;;5084197;28;20501;-77
2022/01/12 07:37:09;;;;;;;232.20;34.50;;;1.60;99.90;;;;;;5085256;28;20106;-79
2022/01/12 07:39:34;;;;;;;230.38;32.80;;;1.60;99.90;;;;;;5074020;28;20043;-78
2022/01/12 07:42:00;;;;;;;206.85;34.08;;;1.60;99.90;;;;;;5080661;28;20047;-78
2022/01/12 07:44:26;;;;;;;241.55;34.83;;;1.60;99.90;;;;;;5083609;28;20036;-78
2022/01/12 07:46:51;;;;;;;279.33;38.40;;;1.60;99.90;;;;;;5106854;28;20460;-78
2022/01/12 07:49:17;;;;;;;199.98;34.85;;;1.60;99.90;;;;;;5094294;28;20047;-81
2022/01/12 07:51:43;;;;;;;189.45;30.30;;;1.60;99.90;;;;;;5091341;28;20044;-79
2022/01/12 07:54:08;;;;;;;182.95;30.33;;;1.60;99.90;;;;;;5079026;28;20385;-79
2022/01/12 07:56:34;;;;;;;211.15;30.48;;;1.70;99.90;;;;;;5064620;28;20043;-81
2022/01/12 07:59:00;;;;;;;311.70;37.88;;;1.70;99.90;;;;;;5070860;28;20115;-78
2022/01/12 08:01:25;;;;;;;258.15;34.42;;;1.80;99.90;;;;;;5085578;28;20096;-78
2022/01/12 08:03:51;;;;;;;261.92;34.95;;;1.80;99.90;;;;;;5074327;28;20850;-79
2022/01/12 08:06:17;;;;;;;208.20;32.10;;;1.90;99.90;;;;;;5084059;28;20052;-78
2022/01/12 08:08:43;;;;;;;242.18;34.47;;;2.00;99.90;;;;;;5075340;28;20044;-78
2022/01/12 08:11:09;;;;;;;205.48;32.90;;;2.00;99.90;;;;;;5101799;28;20100;-78
2022/01/12 08:13:35;;;;;;;247.32;34.03;;;2.10;99.90;;;;;;5104693;28;20044;-79
2022/01/12 08:16:00;;;;;;;231.15;33.85;;;2.20;99.90;;;;;;5094320;28;20489;-79
2022/01/12 08:18:26;;;;;;;227.32;34.13;;;2.20;99.90;;;;;;5070072;28;20047;-78
2022/01/12 08:20:52;;;;;;;209.35;32.40;;;2.30;99.90;;;;;;5089933;28;20043;-80
2022/01/12 08:23:18;;;;;;;173.07;30.13;;;2.40;99.90;;;;;;5104029;28;20082;-79
2022/01/12 08:25:44;;;;;;;164.88;28.92;;;2.40;99.90;;;;;;5075068;28;20176;-79
2022/01/12 08:28:10;;;;;;;116.20;26.08;;;2.40;99.90;;;;;;5112985;28;20126;-78
2022/01/12 08:30:36;;;;;;;120.65;26.70;;;2.50;99.90;;;;;;5088234;28;20057;-78
2022/01/12 08:33:04;;;;;;;113.00;27.80;;;2.50;99.90;;;;;;5075337;28;20059;-78
2022/01/12 08:35:30;;;;;;;133.65;29.38;;;2.60;99.90;;;;;;5090903;28;20082;-79
2022/01/12 08:37:57;;;;;;;122.80;27.02;;;2.60;99.90;;;;;;5111143;28;20066;-79
2022/01/12 08:40:24;;;;;;;150.75;29.33;;;2.60;99.90;;;;;;5105178;28;20052;-78
2022/01/12 08:42:50;;;;;;;138.50;26.85;;;2.70;99.90;;;;;;5075368;28;20040;-78
2022/01/12 08:45:17;;;;;;;249.75;31.98;;;2.70;99.90;;;;;;5093325;28;20055;-79
2022/01/12 08:47:45;;;;;;;216.85;30.85;;;2.80;99.90;;;;;;5102065;28;20050;-79
2022/01/12 08:50:13;;;;;;;213.27;30.70;;;2.90;99.90;;;;;;5112412;28;20093;-78
2022/01/12 08:52:44;;;;;;;178.88;27.92;;;2.90;99.90;;;;;;5060985;28;20051;-79
2022/01/12 08:55:10;;;;;;;236.30;31.73;;;3.00;99.90;;;;;;5084365;28;20481;-79
2022/01/12 08:57:36;;;;;;;249.52;32.75;;;3.00;99.90;;;;;;5075929;28;20112;-84
2022/01/12 09:00:04;;;;;;;280.75;33.55;;;3.10;99.90;;;;;;5075279;28;20047;-78
2022/01/12 09:02:30;;;;;;;286.02;31.27;;;3.10;99.90;;;;;;5092870;28;20054;-77
2022/01/12 09:04:56;;;;;;;292.98;33.60;;;3.30;99.90;;;;;;5074428;28;20126;-80
2022/01/12 09:07:21;;;;;;;257.52;30.52;;;3.40;99.90;;;;;;5093001;28;20101;-79
2022/01/12 09:09:47;;;;;;;227.70;30.60;;;3.40;99.90;;;;;;5055108;28;20048;-78
2022/01/12 09:12:13;;;;;;;210.55;29.25;;;3.50;99.90;;;;;;5078949;28;20055;-78
2022/01/12 09:14:39;;;;;;;241.77;28.52;;;3.50;99.90;;;;;;5042314;28;20055;-83
2022/01/12 09:17:17;;;;;;;155.23;25.60;;;3.60;99.90;;;;;;5100034;28;20032;-80
2022/01/12 09:19:43;;;;;;;203.77;28.95;;;3.60;99.90;;;;;;5073759;28;20139;-78
2022/01/12 09:22:09;;;;;;;183.10;26.83;;;3.70;99.90;;;;;;5061762;28;20467;-80
2022/01/12 09:24:35;;;;;;;176.63;26.63;;;3.70;99.90;;;;;;5076041;28;21350;-80
2022/01/12 09:27:01;;;;;;;138.88;23.35;;;3.80;99.90;;;;;;5048721;28;20044;-79
2022/01/12 09:29:26;;;;;;;142.43;24.98;;;3.90;99.90;;;;;;5066570;28;20046;-77
2022/01/12 09:31:52;;;;;;;207.80;27.75;;;3.90;99.90;;;;;;5054282;28;20040;-77
2022/01/12 09:34:18;;;;;;;137.50;26.05;;;3.90;99.90;;;;;;5072433;28;20039;-79
2022/01/12 09:36:44;;;;;;;141.48;25.77;;;4.10;99.90;;;;;;5067273;28;20105;-81
2022/01/12 09:39:10;;;;;;;171.70;26.77;;;4.10;99.90;;;;;;5063802;28;20056;-80
2022/01/12 09:41:36;;;;;;;154.23;25.83;;;4.20;99.90;;;;;;5091198;28;20075;-79
2022/01/12 09:44:02;;;;;;;139.73;23.63;;;4.20;99.90;;;;;;5080883;28;20076;-80
2022/01/12 09:46:28;;;;;;;130.32;24.67;;;4.20;99.90;;;;;;5075015;28;20123;-83
2022/01/12 09:48:55;;;;;;;153.50;24.73;;;4.30;99.90;;;;;;5071257;28;20056;-81
2022/01/12 09:51:22;;;;;;;172.15;29.77;;;4.30;99.90;;;;;;5087463;28;20401;-79
2022/01/12 09:53:49;;;;;;;176.70;26.25;;;4.40;99.90;;;;;;5079036;28;20040;-80
2022/01/12 09:56:25;;;;;;;202.10;27.98;;;4.50;99.90;;;;;;5087097;28;20054;-80
2022/01/12 09:58:54;;;;;;;166.40;25.27;;;4.50;99.90;;;;;;5098706;28;20492;-80
2022/01/12 10:01:42;;;;;;;214.57;25.80;;;4.60;99.90;;;;;;5079639;28;20374;-80
2022/01/12 10:04:22;;;;;;;177.75;21.95;;;4.60;99.90;;;;;;5111511;28;20108;-80
2022/01/12 10:06:58;;;;;;;161.07;21.38;;;4.70;99.90;;;;;;5061650;28;20101;-79
2022/01/12 10:09:32;;;;;;;121.70;17.58;;;4.70;99.90;;;;;;5087834;28;20104;-82
2022/01/12 10:12:00;;;;;;;197.85;26.83;;;4.80;99.90;;;;;;5081813;28;20130;-81
2022/01/12 10:14:52;;;;;;;160.73;21.77;;;4.90;99.90;;;;;;5072311;28;20151;-80
2022/01/12 10:17:19;;;;;;;166.45;23.80;;;5.00;99.90;;;;;;5073962;28;20055;-80
2022/01/12 10:19:46;;;;;;;138.65;17.20;;;5.00;99.90;;;;;;5076354;28;20089;-84
2022/01/12 10:22:16;;;;;;;168.68;20.90;;;5.00;99.90;;;;;;5078777;28;20044;-79
2022/01/12 10:24:45;;;;;;;161.88;19.85;;;5.10;99.90;;;;;;5062503;28;20075;-81
2022/01/12 10:27:13;;;;;;;164.30;19.17;;;5.10;99.90;;;;;;5077546;28;20044;-81
2022/01/12 10:29:39;;;;;;;116.57;15.93;;;5.10;99.90;;;;;;5080354;28;20093;-80
2022/01/12 10:32:08;;;;;;;136.25;19.00;;;5.10;99.90;;;;;;5103158;28;20452;-80
2022/01/12 10:34:45;;;;;;;70.22;12.25;;;5.20;99.90;;;;;;5088651;28;20098;-81
2022/01/12 10:37:17;;;;;;;113.88;16.65;;;5.20;99.90;;;;;;5085068;28;20491;-80
2022/01/12 10:39:48;;;;;;;99.93;16.42;;;5.20;99.90;;;;;;5077834;28;20052;-79
2022/01/12 10:42:26;;;;;;;92.35;14.05;;;5.30;99.90;;;;;;5092491;28;20047;-81
2022/01/12 10:45:02;;;;;;;80.63;12.65;;;5.30;99.90;;;;;;5055199;28;20481;-81
2022/01/12 10:47:31;;;;;;;113.25;13.60;;;5.30;99.90;;;;;;5060839;28;20427;-81
2022/01/12 10:50:00;;;;;;;101.15;14.38;;;5.40;99.90;;;;;;5108336;28;20142;-82
2022/01/12 10:52:53;;;;;;;87.32;12.25;;;5.40;99.90;;;;;;5056085;28;20075;-81
2022/01/12 10:55:19;;;;;;;85.57;13.05;;;5.40;99.90;;;;;;5071196;28;20056;-81
2022/01/12 10:57:46;;;;;;;71.45;10.95;;;5.50;99.90;;;;;;5086458;28;20366;-81
2022/01/12 11:00:18;;;;;;;82.97;13.23;;;5.40;99.90;;;;;;5088152;28;20040;-81
2022/01/12 11:02:46;;;;;;;69.35;11.38;;;5.50;99.90;;;;;;5094604;28;20035;-80
2022/01/12 11:05:12;;;;;;;67.53;10.57;;;5.50;99.90;;;;;;5090049;28;20036;-80
2022/01/12 11:07:38;;;;;;;73.32;13.50;;;5.40;99.90;;;;;;5091480;28;20112;-80
2022/01/12 11:10:07;;;;;;;70.93;13.90;;;5.30;99.90;;;;;;5075014;28;20126;-80
2022/01/12 11:12:35;;;;;;;83.00;12.85;;;5.30;99.90;;;;;;5056641;28;20139;-80
2022/01/12 11:15:04;;;;;;;65.78;11.73;;;5.30;99.90;;;;;;5089784;28;20497;-81
2022/01/12 11:17:29;;;;;;;74.45;12.32;;;5.40;99.90;;;;;;5073251;28;20066;-81
2022/01/12 11:20:09;;;;;;;63.40;12.13;;;5.30;99.90;;;;;;5083470;28;20551;-85
2022/01/12 11:22:54;;;;;;;67.75;11.23;;;5.40;99.90;;;;;;5084458;28;20077;-80
2022/01/12 11:25:31;;;;;;;62.25;10.95;;;5.40;99.90;;;;;;5081865;28;20044;-80
2022/01/12 11:28:26;;;;;;;78.55;12.70;;;5.40;99.90;;;;;;5079109;28;20044;-82
2022/01/12 11:30:52;;;;;;;75.88;11.10;;;5.40;99.90;;;;;;5073864;28;20047;-79
2022/01/12 11:33:29;;;;;;;80.80;14.93;;;5.40;99.90;;;;;;5058998;28;20040;-80
2022/01/12 11:35:56;;;;;;;73.65;13.50;;;5.50;99.90;;;;;;5054701;28;20040;-85
2022/01/12 11:38:30;;;;;;;78.00;11.07;;;5.60;99.90;;;;;;5078739;28;20059;-80
2022/01/12 11:41:12;;;;;;;67.65;11.05;;;5.60;99.90;;;;;;5078799;28;20113;-84
2022/01/12 11:43:44;;;;;;;64.95;9.48;;;5.60;99.90;;;;;;5097805;28;20052;-79
2022/01/12 11:46:13;;;;;;;79.00;12.13;;;5.60;99.90;;;;;;5084685;28;20127;-84
2022/01/12 11:48:47;;;;;;;81.63;11.15;;;5.70;99.90;;;;;;5082176;28;20051;-79
2022/01/12 11:51:15;;;;;;;86.25;10.73;;;5.70;99.90;;;;;;5078030;28;20044;-80
2022/01/12 11:53:55;;;;;;;70.65;10.43;;;5.70;99.90;;;;;;5096644;28;20048;-80
2022/01/12 11:56:25;;;;;;;47.58;8.02;;;5.60;99.90;;;;;;5096072;28;20043;-82
2022/01/12 11:59:12;;;;;;;55.13;10.40;;;5.60;99.90;;;;;;5081507;28;20085;-81
2022/01/12 12:01:50;;;;;;;51.53;10.07;;;5.50;99.90;;;;;;5100270;28;20052;-81
2022/01/12 12:04:28;;;;;;;56.95;10.05;;;5.50;99.90;;;;;;5084669;28;20178;-81
2022/01/12 12:07:14;;;;;;;49.67;9.50;;;5.60;99.90;;;;;;5069035;28;20055;-82
2022/01/12 12:09:46;;;;;;;68.53;12.07;;;5.60;99.90;;;;;;5065665;28;20035;-81
2022/01/12 12:12:19;;;;;;;42.15;9.90;;;5.70;99.90;;;;;;5094854;28;20055;-81
2022/01/12 12:14:48;;;;;;;43.97;9.82;;;5.70;99.90;;;;;;5095347;28;20093;-81
2022/01/12 12:17:15;;;;;;;48.42;10.07;;;5.70;99.90;;;;;;5093659;28;20050;-81
2022/01/12 12:19:41;;;;;;;49.28;9.18;;;5.60;99.90;;;;;;5109556;28;20435;-82
2022/01/12 12:22:11;;;;;;;37.95;8.95;;;5.70;99.90;;;;;;5082499;28;20047;-81
2022/01/12 12:24:37;;;;;;;45.28;9.85;;;5.60;99.90;;;;;;5072121;28;20404;-82
2022/01/12 12:27:04;;;;;;;51.78;10.45;;;5.70;99.90;;;;;;5080442;28;20497;-85
2022/01/12 12:29:30;;;;;;;48.70;11.38;;;5.70;99.90;;;;;;5081941;28;20174;-82
2022/01/12 12:31:57;;;;;;;56.95;12.82;;;5.80;99.90;;;;;;5096138;28;20127;-81
2022/01/12 12:34:24;;;;;;;43.50;9.63;;;5.80;99.90;;;;;;5087953;28;20039;-81
2022/01/12 12:37:04;;;;;;;54.60;11.27;;;5.70;99.90;;;;;;5088455;28;20035;-81
2022/01/12 12:39:36;;;;;;;58.58;12.55;;;5.80;99.90;;;;;;5074719;28;20456;-81
2022/01/12 12:42:05;;;;;;;46.13;12.05;;;5.80;99.90;;;;;;5079329;28;20065;-82
2022/01/12 12:44:32;;;;;;;55.08;13.68;;;5.80;99.90;;;;;;5077339;28;20078;-82
2022/01/12 12:47:13;;;;;;;52.17;12.40;;;5.80;99.90;;;;;;5086324;28;20046;-82
2022/01/12 12:49:52;;;;;;;50.45;12.65;;;5.80;99.90;;;;;;5065211;28;20055;-83
2022/01/12 12:52:28;;;;;;;57.83;15.10;;;5.80;99.90;;;;;;5084235;28;20382;-82
2022/01/12 12:54:55;;;;;;;70.05;15.63;;;5.70;99.90;;;;;;5086959;28;20040;-81
2022/01/12 12:57:21;;;;;;;54.35;14.82;;;5.80;99.90;;;;;;5076414;28;20117;-81
2022/01/12 13:00:03;;;;;;;58.38;15.13;;;5.90;99.90;;;;;;5071657;28;20130;-82
2022/01/12 13:02:38;;;;;;;70.13;18.73;;;5.90;99.90;;;;;;5076925;28;20071;-82
2022/01/12 13:05:06;;;;;;;76.90;23.35;;;5.90;99.90;;;;;;5075315;28;20067;-82
2022/01/12 13:07:40;;;;;;;62.72;15.80;;;5.90;99.90;;;;;;5086207;28;20051;-82
2022/01/12 13:10:11;;;;;;;66.03;15.40;;;5.90;99.90;;;;;;5059016;28;20052;-85
2022/01/12 13:12:41;;;;;;;63.47;14.93;;;6.00;99.90;;;;;;5044666;28;20127;-81
2022/01/12 13:15:10;;;;;;;72.45;16.13;;;5.90;99.90;;;;;;5071012;28;20044;-84
2022/01/12 13:17:39;;;;;;;77.00;15.07;;;5.90;99.90;;;;;;5071805;28;20055;-80
2022/01/12 13:22:46;;;;;;;68.18;15.35;;;5.90;99.90;;;;;;5070672;28;20079;-82
2022/01/12 13:25:15;;;;;;;64.28;16.77;;;5.80;99.90;;;;;;5076956;28;20048;-82
2022/01/12 13:27:42;;;;;;;59.45;13.95;;;5.80;99.90;;;;;;5084192;28;20079;-81
2022/01/12 13:30:10;;;;;;;60.75;13.88;;;5.80;99.90;;;;;;5050179;28;20047;-81
2022/01/12 13:32:37;;;;;;;70.72;15.48;;;5.70;99.90;;;;;;5078663;28;20047;-84
2022/01/12 13:35:10;;;;;;;61.97;14.57;;;5.60;99.90;;;;;;5074883;28;20093;-82
2022/01/12 13:37:38;;;;;;;60.95;13.15;;;5.60;99.90;;;;;;5074476;28;20493;-82
2022/01/12 13:40:13;;;;;;;51.80;13.07;;;5.60;99.90;;;;;;5086111;28;20060;-82
2022/01/12 13:42:47;;;;;;;44.17;13.18;;;5.50;99.90;;;;;;5079046;28;20044;-81
2022/01/12 13:45:16;;;;;;;48.67;12.90;;;5.40;99.90;;;;;;5070837;28;20106;-83
2022/01/12 13:47:48;;;;;;;58.20;13.13;;;5.30;99.90;;;;;;5078002;28;20040;-82
2022/01/12 13:50:15;;;;;;;43.40;12.68;;;5.40;99.90;;;;;;5066814;28;20054;-83
2022/01/12 13:52:51;;;;;;;43.40;13.68;;;5.30;99.90;;;;;;5076196;28;20044;-82